createdAt,value
2022-12-04T00:00:33.462Z,2.10
2022-12-04T00:03:00.204Z,2.10
2022-12-04T00:05:27.026Z,1.70
2022-12-04T00:07:53.752Z,1.60
2022-12-04T00:10:20.494Z,1.80
2022-12-04T00:12:47.184Z,2.10
2022-12-04T00:15:25.207Z,1.60
2022-12-04T00:17:52.682Z,2.30
2022-12-04T00:20:20.074Z,2.70
2022-12-04T00:22:47.007Z,1.70
2022-12-04T00:25:13.846Z,1.60
2022-12-04T00:27:40.871Z,1.90
2022-12-04T00:30:11.707Z,2.50
2022-12-04T00:32:39.570Z,2.70
2022-12-04T00:35:06.858Z,2.20
2022-12-04T00:37:33.916Z,2.30
2022-12-04T00:40:00.690Z,2.00
2022-12-04T00:42:27.489Z,2.10
2022-12-04T00:44:54.260Z,2.20
2022-12-04T00:47:21.037Z,2.00
2022-12-04T00:49:47.752Z,2.20
2022-12-04T00:52:14.666Z,2.10
2022-12-04T00:54:41.519Z,1.60
2022-12-04T00:57:08.302Z,2.20
2022-12-04T00:59:35.048Z,2.00
2022-12-04T01:02:01.966Z,2.00
2022-12-04T01:04:28.867Z,1.70
2022-12-04T01:06:58.052Z,2.20
2022-12-04T01:09:29.511Z,1.90
2022-12-04T01:11:56.295Z,1.80
2022-12-04T01:14:22.984Z,2.00
2022-12-04T01:16:50.183Z,2.60
2022-12-04T01:19:16.929Z,2.10
2022-12-04T01:21:43.639Z,2.30
2022-12-04T01:24:10.856Z,2.00
2022-12-04T01:26:37.602Z,2.10
2022-12-04T01:29:04.380Z,2.20
2022-12-04T01:31:31.664Z,2.40
2022-12-04T01:33:58.433Z,2.70
2022-12-04T01:36:28.375Z,2.30
2022-12-04T01:38:56.024Z,2.50
2022-12-04T01:41:25.956Z,2.40
2022-12-04T01:44:22.255Z,2.40
2022-12-04T01:46:57.058Z,2.10
2022-12-04T01:49:41.270Z,2.70
2022-12-04T01:52:22.019Z,2.10
2022-12-04T01:54:57.012Z,2.80
2022-12-04T01:57:26.891Z,2.40
2022-12-04T02:00:09.985Z,2.70
2022-12-04T02:02:39.657Z,2.90
2022-12-04T02:05:14.150Z,2.70
2022-12-04T02:07:43.380Z,2.40
2022-12-04T02:10:11.671Z,2.40
2022-12-04T02:13:16.738Z,2.50
2022-12-04T02:16:14.442Z,2.50
2022-12-04T02:18:51.681Z,1.90
2022-12-04T02:21:38.809Z,2.60
2022-12-04T02:24:23.565Z,2.30
2022-12-04T02:27:06.142Z,2.20
2022-12-04T02:29:42.126Z,2.00
2022-12-04T02:32:44.214Z,2.20
2022-12-04T02:35:19.073Z,2.00
2022-12-04T02:37:56.614Z,1.70
2022-12-04T02:40:37.202Z,2.30
2022-12-04T02:43:08.799Z,1.90
2022-12-04T02:45:46.714Z,2.70
2022-12-04T02:48:18.414Z,2.40
2022-12-04T02:50:47.588Z,2.00
2022-12-04T02:53:20.246Z,2.00
2022-12-04T02:55:54.763Z,1.90
2022-12-04T02:58:29.258Z,2.80
2022-12-04T03:01:00.286Z,2.50
2022-12-04T03:03:29.739Z,2.50
2022-12-04T03:05:59.593Z,2.00
2022-12-04T03:08:31.300Z,2.20
2022-12-04T03:11:00.791Z,2.40
2022-12-04T03:13:42.060Z,2.50
2022-12-04T03:16:10.998Z,2.30
2022-12-04T03:18:45.191Z,2.80
2022-12-04T03:21:16.348Z,3.00
2022-12-04T03:24:22.369Z,2.20
2022-12-04T03:27:27.783Z,2.30
2022-12-04T03:29:57.980Z,2.60
2022-12-04T03:32:43.403Z,1.90
2022-12-04T03:35:18.320Z,2.00
2022-12-04T03:38:18.625Z,2.00
2022-12-04T03:41:25.575Z,2.60
2022-12-04T03:43:58.954Z,2.40
2022-12-04T03:47:07.511Z,2.10
2022-12-04T03:49:55.497Z,2.10
2022-12-04T03:52:27.283Z,2.40
2022-12-04T03:55:04.270Z,2.40
2022-12-04T03:57:34.510Z,2.00
2022-12-04T04:00:10.511Z,1.80
2022-12-04T04:02:58.542Z,2.10
2022-12-04T04:05:29.912Z,2.40
2022-12-04T04:08:20.211Z,2.40
2022-12-04T04:10:48.103Z,2.10
2022-12-04T04:13:36.457Z,2.60
2022-12-04T04:16:25.464Z,2.10
2022-12-04T04:19:13.468Z,2.40
2022-12-04T04:22:02.591Z,2.50
2022-12-04T04:24:33.546Z,1.70
2022-12-04T04:27:01.738Z,2.60
2022-12-04T04:29:28.594Z,2.50
2022-12-04T04:32:16.982Z,2.50
2022-12-04T04:35:17.049Z,2.50
2022-12-04T04:37:53.182Z,2.30
2022-12-04T04:40:36.008Z,1.60
2022-12-04T04:43:08.234Z,2.00
2022-12-04T04:45:45.087Z,1.80
2022-12-04T04:48:28.368Z,1.60
2022-12-04T04:50:55.671Z,1.60
2022-12-04T04:53:31.128Z,2.10
2022-12-04T04:55:58.487Z,2.10
2022-12-04T04:58:26.374Z,1.60
2022-12-04T05:01:14.913Z,1.90
2022-12-04T05:03:41.945Z,1.80
2022-12-04T05:06:09.472Z,2.20
2022-12-04T05:08:37.141Z,2.00
2022-12-04T05:11:05.121Z,1.80
2022-12-04T05:13:32.735Z,2.00
2022-12-04T05:16:05.032Z,1.60
2022-12-04T05:18:33.383Z,2.20
2022-12-04T05:21:04.492Z,1.80
2022-12-04T05:23:31.157Z,2.30
2022-12-04T05:26:02.618Z,2.60
2022-12-04T05:28:34.454Z,2.10
2022-12-04T05:31:03.360Z,2.00
2022-12-04T05:33:31.042Z,2.00
2022-12-04T05:36:03.434Z,2.50
2022-12-04T05:38:30.582Z,2.60
2022-12-04T05:41:01.807Z,1.90
2022-12-04T05:43:28.921Z,2.50
2022-12-04T05:45:55.823Z,2.50
2022-12-04T05:48:22.545Z,2.30
2022-12-04T05:50:49.243Z,2.20
2022-12-04T05:53:15.986Z,2.30
2022-12-04T05:55:42.751Z,2.80
2022-12-04T05:58:09.527Z,2.60
2022-12-04T06:00:36.368Z,2.40
2022-12-04T06:03:03.070Z,2.40
2022-12-04T06:05:29.839Z,2.40
2022-12-04T06:07:56.585Z,2.50
2022-12-04T06:10:23.299Z,2.50
2022-12-04T06:12:49.960Z,2.10
2022-12-04T06:15:16.761Z,2.00
2022-12-04T06:17:43.486Z,2.10
2022-12-04T06:20:11.926Z,2.70
2022-12-04T06:22:39.503Z,2.30
2022-12-04T06:25:07.059Z,2.30
2022-12-04T06:27:33.944Z,2.40
2022-12-04T06:30:00.880Z,2.10
2022-12-04T06:32:27.568Z,1.80
2022-12-04T06:34:55.389Z,2.00
2022-12-04T06:37:25.178Z,2.40
2022-12-04T06:39:51.965Z,1.80
2022-12-04T06:42:18.731Z,1.80
2022-12-04T06:44:45.563Z,2.30
2022-12-04T06:47:12.214Z,2.50
2022-12-04T06:49:39.260Z,2.30
2022-12-04T06:52:06.028Z,2.20
2022-12-04T06:54:32.841Z,2.10
2022-12-04T06:56:59.696Z,1.90
2022-12-04T06:59:26.578Z,1.80
2022-12-04T07:01:53.352Z,2.20
2022-12-04T07:04:20.441Z,2.30
2022-12-04T07:06:47.473Z,2.00
2022-12-04T07:09:16.491Z,1.50
2022-12-04T07:11:44.263Z,2.00
2022-12-04T07:14:11.920Z,1.80
2022-12-04T07:16:41.889Z,2.00
2022-12-04T07:19:12.825Z,2.40
2022-12-04T07:21:39.837Z,2.30
2022-12-04T07:24:06.780Z,2.40
2022-12-04T07:26:33.745Z,2.70
2022-12-04T07:29:00.581Z,2.30
2022-12-04T07:31:29.030Z,2.30
2022-12-04T07:33:56.560Z,2.50
2022-12-04T07:36:24.852Z,2.20
2022-12-04T07:38:51.861Z,2.10
2022-12-04T07:41:19.172Z,1.70
2022-12-04T07:43:46.019Z,1.50
2022-12-04T07:46:19.063Z,1.70
2022-12-04T07:48:46.188Z,2.00
2022-12-04T07:51:15.650Z,3.10
2022-12-04T07:53:43.118Z,2.10
2022-12-04T07:56:10.852Z,1.50
2022-12-04T07:58:37.621Z,2.50
2022-12-04T08:01:26.330Z,2.00
2022-12-04T08:03:56.467Z,1.80
2022-12-04T08:06:26.443Z,1.60
2022-12-04T08:08:53.618Z,1.70
2022-12-04T08:11:23.738Z,1.40
2022-12-04T08:13:59.139Z,1.40
2022-12-04T08:16:27.982Z,1.40
2022-12-04T08:18:55.225Z,1.40
2022-12-04T08:21:23.773Z,2.00
2022-12-04T08:23:52.387Z,2.00
2022-12-04T08:26:20.576Z,1.80
2022-12-04T08:28:47.312Z,1.60
2022-12-04T08:31:18.542Z,1.90
2022-12-04T08:33:46.225Z,2.20
2022-12-04T08:36:15.543Z,2.00
2022-12-04T08:38:42.350Z,1.80
2022-12-04T08:41:12.331Z,1.70
2022-12-04T08:43:39.189Z,2.20
2022-12-04T08:46:11.750Z,2.00
2022-12-04T08:48:39.844Z,1.70
2022-12-04T08:51:08.307Z,2.00
2022-12-04T08:53:38.957Z,1.80
2022-12-04T08:56:06.226Z,1.80
2022-12-04T08:58:33.344Z,2.20
2022-12-04T09:01:10.862Z,1.80
2022-12-04T09:03:40.315Z,2.00
2022-12-04T09:06:08.411Z,1.90
2022-12-04T09:08:35.974Z,2.00
2022-12-04T09:11:14.688Z,1.80
2022-12-04T09:13:42.966Z,1.90
2022-12-04T09:16:13.233Z,2.00
2022-12-04T09:18:40.539Z,1.90
2022-12-04T09:21:10.220Z,1.90
2022-12-04T09:23:38.247Z,2.00
2022-12-04T09:26:07.046Z,2.10
2022-12-04T09:28:33.714Z,2.20
2022-12-04T09:31:02.866Z,2.40
2022-12-04T09:33:30.641Z,2.60
2022-12-04T09:36:01.224Z,2.70
2022-12-04T09:38:28.419Z,2.60
2022-12-04T09:41:15.326Z,2.40
2022-12-04T09:43:54.962Z,2.20
2022-12-04T09:46:52.163Z,2.60
2022-12-04T09:49:30.945Z,2.40
2022-12-04T09:52:02.127Z,2.30
2022-12-04T09:54:35.175Z,1.90
2022-12-04T09:57:12.097Z,1.90
2022-12-04T09:59:40.991Z,1.60
2022-12-04T10:02:35.359Z,2.10
2022-12-04T10:05:04.427Z,1.90
2022-12-04T10:07:52.660Z,2.20
2022-12-04T10:10:36.836Z,2.40
2022-12-04T10:13:09.525Z,2.60
2022-12-04T10:15:48.104Z,2.20
2022-12-04T10:18:28.587Z,2.40
2022-12-04T10:21:07.330Z,2.50
2022-12-04T10:23:59.483Z,2.10
2022-12-04T10:26:33.042Z,2.40
2022-12-04T10:29:03.379Z,2.00
2022-12-04T10:31:33.062Z,1.60
2022-12-04T10:34:26.535Z,1.90
2022-12-04T10:36:55.614Z,1.70
2022-12-04T10:39:33.259Z,2.10
2022-12-04T10:42:01.043Z,2.00
2022-12-04T10:44:27.853Z,1.90
2022-12-04T10:46:59.208Z,2.20
2022-12-04T10:49:35.643Z,1.80
2022-12-04T10:52:02.423Z,2.00
2022-12-04T10:54:37.403Z,2.00
2022-12-04T10:57:08.003Z,2.30
2022-12-04T10:59:38.826Z,2.10
2022-12-04T11:02:17.633Z,2.10
2022-12-04T11:04:56.166Z,2.60
2022-12-04T11:07:45.050Z,2.60
2022-12-04T11:10:25.541Z,2.00
2022-12-04T11:13:15.509Z,1.80
2022-12-04T11:15:53.930Z,1.80
2022-12-04T11:18:23.306Z,2.00
2022-12-04T11:21:01.602Z,1.80
2022-12-04T11:23:35.499Z,2.20
2022-12-04T11:26:06.099Z,2.30
2022-12-04T11:28:41.527Z,2.10
2022-12-04T11:31:11.538Z,1.90
2022-12-04T11:33:52.270Z,1.70
2022-12-04T11:36:31.500Z,2.00
2022-12-04T11:39:15.565Z,2.30
2022-12-04T11:41:42.429Z,1.90
2022-12-04T11:44:30.050Z,2.10
2022-12-04T11:46:59.014Z,2.00
2022-12-04T11:49:26.919Z,2.00
2022-12-04T11:52:26.491Z,2.40
2022-12-04T11:55:02.329Z,2.10
2022-12-04T11:57:40.991Z,2.00
2022-12-04T12:00:16.950Z,2.00
2022-12-04T12:03:14.537Z,2.10
2022-12-04T12:06:07.496Z,2.20
2022-12-04T12:08:50.996Z,1.90
2022-12-04T12:11:34.514Z,1.90
2022-12-04T12:14:30.225Z,2.10
2022-12-04T12:17:32.552Z,1.90
2022-12-04T12:20:23.043Z,2.00
2022-12-04T12:22:55.550Z,2.00
2022-12-04T12:25:51.712Z,2.10
2022-12-04T12:28:34.171Z,2.00
2022-12-04T12:31:19.431Z,2.40
2022-12-04T12:34:01.882Z,2.30
2022-12-04T12:36:33.653Z,1.90
2022-12-04T12:39:05.117Z,2.00
2022-12-04T12:41:38.849Z,1.90
2022-12-04T12:44:28.625Z,2.10
2022-12-04T12:47:14.987Z,2.10
2022-12-04T12:49:58.065Z,2.30
2022-12-04T12:52:34.424Z,2.40
2022-12-04T12:55:13.320Z,2.20
2022-12-04T12:57:43.330Z,2.40
2022-12-04T13:00:13.435Z,2.30
2022-12-04T13:03:07.046Z,2.50
2022-12-04T13:05:39.460Z,2.70
2022-12-04T13:08:27.716Z,2.70
2022-12-04T13:11:11.336Z,4.20
2022-12-04T13:13:52.980Z,6.50
2022-12-04T13:16:37.243Z,3.60
2022-12-04T13:19:16.670Z,2.70
2022-12-04T13:21:56.506Z,2.80
2022-12-04T13:24:43.002Z,2.30
2022-12-04T13:27:19.330Z,2.40
2022-12-04T13:30:12.754Z,2.30
2022-12-04T13:32:51.639Z,2.50
2022-12-04T13:35:38.041Z,2.50
2022-12-04T13:38:26.085Z,2.70
2022-12-04T13:41:14.836Z,2.50
2022-12-04T13:43:41.458Z,2.40
2022-12-04T13:46:34.602Z,2.40
2022-12-04T13:49:25.945Z,2.10
2022-12-04T13:51:53.590Z,2.50
2022-12-04T13:54:21.646Z,2.70
2022-12-04T13:56:55.466Z,2.20
2022-12-04T13:59:36.314Z,2.20
2022-12-04T14:02:29.797Z,2.50
2022-12-04T14:05:06.558Z,3.40
2022-12-04T14:07:55.635Z,2.60
2022-12-04T14:10:33.223Z,2.30
2022-12-04T14:13:55.733Z,2.30
2022-12-04T14:16:27.019Z,2.30
2022-12-04T14:18:56.919Z,2.60
2022-12-04T14:21:24.276Z,2.60
2022-12-04T14:23:52.846Z,2.40
2022-12-04T14:26:48.846Z,2.10
2022-12-04T14:29:38.873Z,2.30
2022-12-04T14:32:16.469Z,2.10
2022-12-04T14:34:44.148Z,2.90
2022-12-04T14:37:22.971Z,2.40
2022-12-04T14:39:50.451Z,2.20
2022-12-04T14:42:27.484Z,2.20
2022-12-04T14:44:56.575Z,2.30
2022-12-04T14:47:44.092Z,2.20
2022-12-04T14:50:32.688Z,2.30
2022-12-04T14:53:12.994Z,3.00
2022-12-04T14:56:08.082Z,2.40
2022-12-04T14:58:38.717Z,2.30
2022-12-04T15:01:29.656Z,2.50
2022-12-04T15:03:59.794Z,2.60
2022-12-04T15:06:31.571Z,2.60
2022-12-04T15:09:19.416Z,2.60
2022-12-04T15:12:08.015Z,2.40
2022-12-04T15:14:49.135Z,2.30
2022-12-04T15:17:18.069Z,2.60
2022-12-04T15:19:45.820Z,2.00
2022-12-04T15:22:24.965Z,2.60
2022-12-04T15:24:53.220Z,2.40
2022-12-04T15:27:31.736Z,2.60
2022-12-04T15:30:01.018Z,2.20
2022-12-04T15:32:29.635Z,2.60
2022-12-04T15:35:03.703Z,2.80
2022-12-04T15:37:32.294Z,2.30
2022-12-04T15:40:00.054Z,2.40
2022-12-04T15:42:30.420Z,2.50
2022-12-04T15:45:01.496Z,2.50
2022-12-04T15:47:37.221Z,2.30
2022-12-04T15:50:16.231Z,2.50
2022-12-04T15:52:56.369Z,2.30
2022-12-04T15:55:25.026Z,2.30
2022-12-04T15:57:57.860Z,2.70
2022-12-04T16:00:31.991Z,2.70
2022-12-04T16:02:59.952Z,2.40
2022-12-04T16:05:32.760Z,2.20
2022-12-04T16:08:24.479Z,2.40
2022-12-04T16:11:00.186Z,2.20
2022-12-04T16:13:30.812Z,3.00
2022-12-04T16:16:00.097Z,2.80
2022-12-04T16:18:30.714Z,2.40
2022-12-04T16:20:57.427Z,2.40
2022-12-04T16:23:26.065Z,2.80
2022-12-04T16:25:53.878Z,2.50
2022-12-04T16:28:20.820Z,2.30
2022-12-04T16:30:47.792Z,2.10
2022-12-04T16:33:15.829Z,2.60
2022-12-04T16:35:42.621Z,2.40
2022-12-04T16:38:17.181Z,2.40
2022-12-04T16:40:45.998Z,2.50
2022-12-04T16:43:14.653Z,2.80
2022-12-04T16:45:52.823Z,2.30
2022-12-04T16:48:19.828Z,2.60
2022-12-04T16:50:47.260Z,2.70
2022-12-04T16:53:18.885Z,2.80
2022-12-04T16:55:48.475Z,2.50
2022-12-04T16:58:16.667Z,2.50
2022-12-04T17:00:45.909Z,2.60
2022-12-04T17:03:38.801Z,2.40
2022-12-04T17:06:05.659Z,2.40
2022-12-04T17:08:33.042Z,2.50
2022-12-04T17:10:59.749Z,2.50
2022-12-04T17:13:26.467Z,3.10
2022-12-04T17:15:53.264Z,2.80
2022-12-04T17:18:21.482Z,2.80
2022-12-04T17:20:48.768Z,3.00
2022-12-04T17:23:15.673Z,3.10
2022-12-04T17:25:42.396Z,3.10
2022-12-04T17:28:09.243Z,3.30
2022-12-04T17:30:36.651Z,2.80
2022-12-04T17:33:04.621Z,2.60
2022-12-04T17:35:31.571Z,2.70
2022-12-04T17:38:02.279Z,2.90
2022-12-04T17:40:32.417Z,3.00
2022-12-04T17:42:59.294Z,2.80
2022-12-04T17:45:26.074Z,2.90
2022-12-04T17:47:52.815Z,3.00
2022-12-04T17:50:19.615Z,2.70
2022-12-04T17:52:46.548Z,2.90
2022-12-04T17:55:13.374Z,3.00
2022-12-04T17:57:40.118Z,3.00
2022-12-04T18:00:08.952Z,2.80
2022-12-04T18:02:36.293Z,2.90
2022-12-04T18:05:03.119Z,2.90
2022-12-04T18:07:31.434Z,2.90
2022-12-04T18:09:58.410Z,3.10
2022-12-04T18:12:25.525Z,3.40
2022-12-04T18:14:54.124Z,3.10
2022-12-04T18:17:27.010Z,2.90
2022-12-04T18:19:54.054Z,2.90
2022-12-04T18:22:20.868Z,2.90
2022-12-04T18:24:47.916Z,3.00
2022-12-04T18:27:14.698Z,3.00
2022-12-04T18:29:42.486Z,3.30
2022-12-04T18:32:09.594Z,3.10
2022-12-04T18:34:36.371Z,3.30
2022-12-04T18:37:04.070Z,3.40
2022-12-04T18:39:30.943Z,3.40
2022-12-04T18:41:57.679Z,3.10
2022-12-04T18:44:25.066Z,3.30
2022-12-04T18:46:53.568Z,3.20
2022-12-04T18:49:20.608Z,3.30
2022-12-04T18:51:50.126Z,3.20
2022-12-04T18:54:20.125Z,2.90
2022-12-04T18:56:47.365Z,3.10
2022-12-04T18:59:25.987Z,2.90
2022-12-04T19:01:53.809Z,3.00
2022-12-04T19:04:23.100Z,3.10
2022-12-04T19:06:55.834Z,2.70
2022-12-04T19:10:10.058Z,3.00
2022-12-04T19:12:13.133Z,2.70
2022-12-04T19:14:40.129Z,2.80
2022-12-04T19:17:07.577Z,3.20
2022-12-04T19:19:34.529Z,3.00
2022-12-04T19:22:02.099Z,2.90
2022-12-04T19:24:28.869Z,3.00
2022-12-04T19:26:55.750Z,3.10
2022-12-04T19:29:22.426Z,3.00
2022-12-04T19:31:50.129Z,3.00
2022-12-04T19:34:19.092Z,3.00
2022-12-04T19:36:46.017Z,3.70
2022-12-04T19:39:12.841Z,3.60
2022-12-04T19:41:41.344Z,3.40
2022-12-04T19:44:40.065Z,3.70
2022-12-04T19:46:56.655Z,3.50
2022-12-04T19:49:23.563Z,3.20
2022-12-04T19:51:51.429Z,3.00
2022-12-04T19:54:18.698Z,3.10
2022-12-04T19:56:50.954Z,3.00
2022-12-04T19:59:18.555Z,3.20
2022-12-04T20:01:45.385Z,3.20
2022-12-04T20:04:13.040Z,3.00
2022-12-04T20:06:43.043Z,3.20
2022-12-04T20:09:14.420Z,3.40
2022-12-04T20:11:52.258Z,3.60
2022-12-04T20:14:19.131Z,3.50
2022-12-04T20:16:46.691Z,3.20
2022-12-04T20:19:15.577Z,3.00
2022-12-04T20:21:43.183Z,3.40
2022-12-04T20:24:14.428Z,3.40
2022-12-04T20:26:43.931Z,3.50
2022-12-04T20:29:13.289Z,3.60
2022-12-04T20:31:42.423Z,3.40
2022-12-04T20:34:13.124Z,3.50
2022-12-04T20:36:42.282Z,3.30
2022-12-04T20:39:10.919Z,3.80
2022-12-04T20:41:38.176Z,3.30
2022-12-04T20:44:08.750Z,3.20
2022-12-04T20:46:37.490Z,3.50
2022-12-04T20:49:06.881Z,3.30
2022-12-04T20:51:36.606Z,3.30
2022-12-04T20:54:04.482Z,3.50
2022-12-04T20:56:33.985Z,3.40
2022-12-04T20:59:04.615Z,3.30
2022-12-04T21:01:31.834Z,3.30
2022-12-04T21:03:59.718Z,3.40
2022-12-04T21:06:39.079Z,3.80
2022-12-04T21:09:11.821Z,3.30
2022-12-04T21:11:41.442Z,3.40
2022-12-04T21:14:34.274Z,3.50
2022-12-04T21:17:01.671Z,3.50
2022-12-04T21:19:28.541Z,3.70
2022-12-04T21:21:55.869Z,3.60
2022-12-04T21:24:24.259Z,3.60
2022-12-04T21:26:50.978Z,3.50
2022-12-04T21:29:17.850Z,3.40
2022-12-04T21:31:44.857Z,3.10
2022-12-04T21:34:13.628Z,3.10
2022-12-04T21:36:41.075Z,3.20
2022-12-04T21:39:08.578Z,3.20
2022-12-04T21:41:53.815Z,3.40
2022-12-04T21:44:21.636Z,3.20
2022-12-04T21:46:49.234Z,3.10
2022-12-04T21:49:17.385Z,3.10
2022-12-04T21:51:59.714Z,3.00
2022-12-04T21:54:27.785Z,3.10
2022-12-04T21:56:55.524Z,3.00
2022-12-04T21:59:22.948Z,3.00
2022-12-04T22:01:49.778Z,3.10
2022-12-04T22:04:16.853Z,3.10
2022-12-04T22:06:43.528Z,3.10
2022-12-04T22:09:12.269Z,3.20
2022-12-04T22:11:41.536Z,3.00
2022-12-04T22:14:09.367Z,3.00
2022-12-04T22:16:41.620Z,3.20
2022-12-04T22:19:09.935Z,3.20
2022-12-04T22:21:36.660Z,3.20
2022-12-04T22:24:04.270Z,3.20
2022-12-04T22:26:32.059Z,3.30
2022-12-04T22:28:59.461Z,3.20
2022-12-04T22:31:28.943Z,3.20
2022-12-04T22:33:57.704Z,3.30
2022-12-04T22:36:27.165Z,3.40
2022-12-04T22:39:10.708Z,3.30
2022-12-04T22:41:38.311Z,3.40
2022-12-04T22:44:05.356Z,3.40
2022-12-04T22:46:32.717Z,3.30
2022-12-04T22:49:00.125Z,3.30
2022-12-04T22:51:27.682Z,3.40
2022-12-04T22:53:56.792Z,3.40
2022-12-04T22:56:27.924Z,3.50
2022-12-04T22:58:55.661Z,3.40
2022-12-04T23:01:25.142Z,3.40
2022-12-04T23:03:52.393Z,3.60
2022-12-04T23:06:20.995Z,3.40
2022-12-04T23:08:48.539Z,3.50
2022-12-04T23:11:19.039Z,3.40
2022-12-04T23:13:56.180Z,3.30
2022-12-04T23:16:23.860Z,3.50
2022-12-04T23:18:50.800Z,3.40
2022-12-04T23:21:18.622Z,3.60
2022-12-04T23:23:46.949Z,3.50
2022-12-04T23:26:17.605Z,3.40
2022-12-04T23:28:44.707Z,3.40
2022-12-04T23:31:12.242Z,3.50
2022-12-04T23:33:40.581Z,3.60
2022-12-04T23:36:09.413Z,3.70
2022-12-04T23:38:38.441Z,3.50
2022-12-04T23:41:13.439Z,3.50
2022-12-04T23:43:40.996Z,3.50
2022-12-04T23:46:11.606Z,3.50
2022-12-04T23:48:42.902Z,3.50
2022-12-04T23:51:11.521Z,3.60
2022-12-04T23:53:38.447Z,3.70
2022-12-04T23:56:19.249Z,3.60
2022-12-04T23:58:49.537Z,3.60
